Time;durP1;ratioP1;P1;durP2;ratioP2;P2;SDS_P1;SDS_P2;PMS_P1;PMS_P2;Temp;Humidity;BMP_temperature;BMP_pressure;BME280_temperature;BME280_humidity;BME280_pressure;Samples;Min_cycle;Max_cycle;Signal;HPM_P1;HPM_P2
2021/04/25 00:00:15;;;;;;;11.45;5.03;;;;;;;1.24;56.20;100733.78;1746366;81;22075;-74
2021/04/25 00:02:43;;;;;;;10.82;5.78;;;;;;;1.20;56.34;100737.40;1772394;80;21483;-74
2021/04/25 00:05:12;;;;;;;9.70;5.28;;;;;;;1.16;56.50;100734.07;1773135;80;21123;-74
2021/04/25 00:07:40;;;;;;;14.47;5.85;;;;;;;1.13;56.68;100743.26;1767386;81;21123;-74
2021/04/25 00:10:10;;;;;;;12.80;6.62;;;;;;;1.08;56.81;100736.93;1741093;81;21144;-75
2021/04/25 00:12:42;;;;;;;11.25;6.22;;;;;;;1.05;56.94;100733.56;1754964;81;22575;-74
2021/04/25 00:15:19;;;;;;;11.37;6.10;;;;;;;0.99;57.17;100730.73;1740481;81;21131;-74
2021/04/25 00:17:46;;;;;;;13.28;6.60;;;;;;;0.94;57.17;100726.58;1740351;81;21005;-75
2021/04/25 00:20:14;;;;;;;12.73;6.15;;;;;;;0.91;57.23;100725.40;1741241;81;21083;-75
2021/04/25 00:22:42;;;;;;;12.45;6.30;;;;;;;0.88;57.35;100725.52;1741622;81;21309;-74
2021/04/25 00:25:10;;;;;;;12.23;5.83;;;;;;;0.87;57.47;100723.37;1738565;81;22519;-74
2021/04/25 00:27:38;;;;;;;10.03;5.42;;;;;;;0.86;57.56;100721.19;1765598;81;21136;-75
2021/04/25 00:30:08;;;;;;;10.50;5.55;;;;;;;0.85;57.63;100717.34;1745573;79;21622;-74
2021/04/25 00:32:37;;;;;;;12.45;6.12;;;;;;;0.85;57.65;100718.19;1734091;80;22140;-74
2021/04/25 00:35:07;;;;;;;11.70;5.95;;;;;;;0.85;57.82;100717.34;1732824;82;21141;-75
2021/04/25 00:37:34;;;;;;;12.88;7.33;;;;;;;0.82;58.01;100720.91;1739415;81;22070;-74
2021/04/25 00:40:08;;;;;;;14.47;7.35;;;;;;;0.77;58.10;100718.05;1767924;79;21141;-75
2021/04/25 00:42:35;;;;;;;;;;;;;;;0.74;58.18;100715.56;1718738;82;21071;-74
2021/04/25 00:45:05;;;;;;;17.05;8.50;;;;;;;0.67;58.33;100716.20;1744307;81;20646;-75
2021/04/25 00:47:33;;;;;;;15.55;8.23;;;;;;;0.60;58.40;100714.73;1767709;79;21352;-74
2021/04/25 00:50:02;;;;;;;15.43;8.00;;;;;;;0.54;58.58;100718.37;1779998;79;21855;-75
2021/04/25 00:52:30;;;;;;;18.05;8.20;;;;;;;0.47;58.75;100710.36;1755710;81;21577;-74
2021/04/25 00:54:58;;;;;;;14.75;8.08;;;;;;;0.39;58.89;100717.58;1747249;81;21127;-74
2021/04/25 00:57:25;;;;;;;14.33;8.13;;;;;;;0.34;59.10;100711.67;1739072;82;21065;-74
2021/04/25 00:59:53;;;;;;;13.50;7.45;;;;;;;0.31;59.11;100709.62;1746926;81;21086;-74
2021/04/25 01:02:20;;;;;;;13.93;7.03;;;;;;;0.29;59.17;100712.28;1748932;81;21736;-74
2021/04/25 01:04:48;;;;;;;14.43;8.08;;;;;;;0.25;59.25;100706.77;1753987;81;21145;-74
2021/04/25 01:07:15;;;;;;;14.33;7.53;;;;;;;0.18;59.46;100706.09;1769376;80;21058;-74
2021/04/25 01:09:43;;;;;;;14.05;7.62;;;;;;;0.15;59.62;100702.75;1749690;81;21518;-74
2021/04/25 01:12:11;;;;;;;18.55;8.40;;;;;;;0.12;59.54;100705.01;1777030;79;21054;-74
2021/04/25 01:14:39;;;;;;;12.37;7.50;;;;;;;0.10;59.67;100703.36;1756398;81;23397;-74
2021/04/25 01:17:06;;;;;;;13.68;8.13;;;;;;;0.07;59.77;100695.64;1739529;81;21082;-74
2021/04/25 01:19:33;;;;;;;17.98;9.03;;;;;;;0.06;59.94;100696.55;1745545;81;21137;-74
2021/04/25 01:22:02;;;;;;;14.45;7.70;;;;;;;0.06;59.96;100699.14;1734679;81;21357;-74
2021/04/25 01:24:29;;;;;;;14.00;8.05;;;;;;;0.03;60.08;100695.35;1749500;81;21536;-74
2021/04/25 01:26:57;;;;;;;14.85;8.23;;;;;;;-0.03;60.20;100692.03;1750333;80;22379;-74
2021/04/25 01:29:24;;;;;;;17.32;9.20;;;;;;;-0.04;60.18;100694.68;1717985;82;21081;-75
2021/04/25 01:31:51;;;;;;;19.67;10.18;;;;;;;-0.06;60.23;100692.13;1742833;79;21116;-75
2021/04/25 01:34:19;;;;;;;22.52;13.10;;;;;;;-0.06;60.25;100688.23;1740152;81;21153;-75
2021/04/25 01:36:47;;;;;;;29.02;13.85;;;;;;;-0.08;60.26;100685.30;1751004;81;21145;-75
2021/04/25 01:39:14;;;;;;;29.50;15.23;;;;;;;-0.10;60.27;100680.58;1739191;81;22511;-74
2021/04/25 01:41:41;;;;;;;26.93;13.48;;;;;;;-0.14;60.30;100678.98;1743539;81;21069;-74
2021/04/25 01:44:09;;;;;;;23.67;11.10;;;;;;;-0.16;60.32;100681.63;1743137;81;21148;-74
2021/04/25 01:46:38;;;;;;;21.07;10.58;;;;;;;-0.16;60.39;100675.14;1758630;81;21199;-75
2021/04/25 01:49:07;;;;;;;18.98;10.05;;;;;;;-0.17;60.49;100674.74;1765471;80;21169;-74
2021/04/25 01:51:35;;;;;;;20.37;10.38;;;;;;;-0.17;60.51;100676.49;1750692;81;22015;-75
2021/04/25 01:54:04;;;;;;;20.95;11.22;;;;;;;-0.19;60.66;100675.25;1709510;83;21105;-74
2021/04/25 01:56:32;;;;;;;22.93;12.63;;;;;;;-0.20;60.92;100679.16;1739101;81;21349;-74
2021/04/25 01:59:00;;;;;;;28.62;15.28;;;;;;;-0.26;61.27;100670.28;1718247;80;21148;-75
2021/04/25 02:01:28;;;;;;;26.95;14.10;;;;;;;-0.33;61.53;100674.34;1740744;81;21151;-75
2021/04/25 02:03:56;;;;;;;27.07;13.62;;;;;;;-0.39;61.80;100674.52;1742012;80;22891;-75
2021/04/25 02:06:23;;;;;;;24.10;12.58;;;;;;;-0.46;61.96;100687.73;1694016;83;21098;-75
2021/04/25 02:08:51;;;;;;;26.40;12.82;;;;;;;-0.53;62.12;100692.24;1760264;79;21189;-75
2021/04/25 02:11:18;;;;;;;19.85;10.95;;;;;;;-0.57;62.24;100698.42;1777980;79;21114;-75
2021/04/25 02:13:46;;;;;;;17.77;10.05;;;;;;;-0.59;62.37;100693.70;1797128;79;21122;-75
2021/04/25 02:16:14;;;;;;;17.77;8.73;;;;;;;-0.62;62.50;100688.61;1779198;79;22459;-75
2021/04/25 02:18:42;;;;;;;71.12;30.55;;;;;;;-0.62;62.61;100686.02;1789454;79;21130;-75
2021/04/25 02:21:10;;;;;;;130.70;54.03;;;;;;;-0.62;62.75;100684.27;1761924;81;21422;-75
2021/04/25 02:23:37;;;;;;;38.25;17.60;;;;;;;-0.62;62.83;100683.42;1719769;79;21482;-75
2021/04/25 02:26:05;;;;;;;18.65;8.95;;;;;;;-0.61;62.88;100687.27;1767956;79;21063;-75
2021/04/25 02:28:32;;;;;;;15.18;7.67;;;;;;;-0.59;62.97;100683.33;1773987;79;21624;-74
2021/04/25 02:31:00;;;;;;;13.50;7.00;;;;;;;-0.55;63.04;100691.89;1795792;79;21114;-74
2021/04/25 02:33:27;;;;;;;12.70;6.83;;;;;;;-0.54;63.08;100689.25;1774435;79;21181;-74
2021/04/25 02:35:54;;;;;;;10.90;5.87;;;;;;;-0.54;63.10;100684.52;1784022;79;21047;-74
2021/04/25 02:38:22;;;;;;;12.07;6.40;;;;;;;-0.51;63.08;100684.41;1789963;79;21055;-74
2021/04/25 02:40:50;;;;;;;11.33;5.28;;;;;;;-0.50;63.15;100686.11;1783064;79;21887;-74
2021/04/25 02:43:17;;;;;;;11.20;5.97;;;;;;;-0.51;63.15;100684.41;1781127;79;21556;-74
2021/04/25 02:45:45;;;;;;;12.28;5.95;;;;;;;-0.54;63.16;100689.25;1779344;79;21059;-74
2021/04/25 02:48:13;;;;;;;11.93;6.33;;;;;;;-0.54;63.20;100685.36;1780679;79;21147;-75
2021/04/25 02:50:42;;;;;;;11.28;5.97;;;;;;;-0.55;63.25;100684.95;1791554;79;21553;-74
2021/04/25 02:53:11;;;;;;;12.35;6.30;;;;;;;-0.54;63.28;100679.32;1773259;79;22054;-74
2021/04/25 02:55:38;;;;;;;15.72;6.47;;;;;;;-0.55;63.34;100681.06;1774123;79;21122;-74
2021/04/25 02:58:06;;;;;;;14.60;6.70;;;;;;;-0.54;63.34;100684.52;1737066;79;21071;-75
2021/04/25 03:00:35;;;;;;;13.65;7.22;;;;;;;-0.53;63.35;100680.56;1778580;79;21089;-75
2021/04/25 03:03:03;;;;;;;18.30;7.05;;;;;;;-0.52;63.38;100678.38;1785431;79;21059;-74
2021/04/25 03:05:31;;;;;;;10.78;4.80;;;;;;;-0.50;63.40;100680.47;1769695;79;22505;-75
2021/04/25 03:07:58;;;;;;;10.58;6.05;;;;;;;-0.50;63.51;100681.77;1774142;79;21212;-74
2021/04/25 03:10:26;;;;;;;15.50;6.92;;;;;;;-0.53;63.59;100683.61;1774621;79;21553;-75
2021/04/25 03:12:55;;;;;;;10.38;6.37;;;;;;;-0.55;63.71;100680.22;1792291;79;21056;-75
2021/04/25 03:15:23;;;;;;;12.10;6.55;;;;;;;-0.54;63.79;100680.62;1774246;79;21489;-74
2021/04/25 03:17:50;;;;;;;11.63;6.95;;;;;;;-0.54;63.83;100678.88;1778708;79;22500;-75
2021/04/25 03:20:20;;;;;;;14.18;6.78;;;;;;;-0.49;63.94;100671.79;1790033;79;21192;-75
2021/04/25 03:22:48;;;;;;;13.83;7.05;;;;;;;-0.46;64.00;100673.47;1783974;79;21122;-74
2021/04/25 03:25:15;;;;;;;12.53;6.72;;;;;;;-0.44;63.99;100673.81;1772501;79;21066;-75
2021/04/25 03:27:43;;;;;;;11.48;6.87;;;;;;;-0.42;64.08;100669.42;1808471;77;21050;-74
2021/04/25 03:30:13;;;;;;;13.45;7.72;;;;;;;-0.40;64.03;100676.71;1800563;77;22489;-75
2021/04/25 03:32:40;;;;;;;12.82;7.28;;;;;;;-0.38;64.07;100680.58;1774364;79;21134;-75
2021/04/25 03:35:10;;;;;;;12.82;7.58;;;;;;;-0.36;64.09;100679.64;1794814;79;21050;-74
2021/04/25 03:37:38;;;;;;;12.35;7.08;;;;;;;-0.32;64.14;100679.93;1788068;79;21153;-74
2021/04/25 03:40:08;;;;;;;11.25;6.85;;;;;;;-0.28;64.16;100679.41;1775644;79;21330;-75
2021/04/25 03:42:36;;;;;;;12.85;7.03;;;;;;;-0.25;64.29;100680.61;1736876;82;23032;-74
2021/04/25 03:45:13;;;;;;;11.97;6.83;;;;;;;-0.22;64.40;100681.80;1740838;81;21508;-74
2021/04/25 03:47:38;;;;;;;12.30;6.50;;;;;;;-0.18;64.45;100677.39;1712357;82;21149;-75
2021/04/25 03:50:08;;;;;;;13.93;7.08;;;;;;;-0.12;64.51;100682.38;1718296;81;21081;-75
2021/04/25 03:52:35;;;;;;;13.75;6.80;;;;;;;-0.07;64.59;100689.14;1737857;81;21050;-74
2021/04/25 03:55:04;;;;;;;9.80;6.35;;;;;;;-0.02;64.66;100682.05;1740170;81;22495;-75
2021/04/25 03:57:32;;;;;;;10.60;6.05;;;;;;;0.04;64.70;100682.77;1752575;81;21499;-74
2021/04/25 04:00:00;;;;;;;10.63;6.58;;;;;;;0.10;64.65;100681.28;1740150;81;21132;-75
2021/04/25 04:02:27;;;;;;;9.60;6.00;;;;;;;0.15;64.63;100688.02;1762445;81;21761;-74
2021/04/25 04:04:55;;;;;;;9.70;6.33;;;;;;;0.20;64.58;100687.44;1744372;81;21174;-74
2021/04/25 04:07:22;;;;;;;10.28;6.53;;;;;;;0.23;64.55;100692.98;1744380;79;22590;-74
2021/04/25 04:09:49;;;;;;;12.93;7.10;;;;;;;0.27;64.54;100693.27;1747527;79;21506;-75
2021/04/25 04:12:17;;;;;;;12.05;7.40;;;;;;;0.31;64.56;100700.08;1747879;81;21526;-75
2021/04/25 04:14:44;;;;;;;11.38;7.08;;;;;;;0.38;64.49;100690.32;1767274;81;21838;-75
2021/04/25 04:17:12;;;;;;;11.80;6.30;;;;;;;0.45;64.41;100695.73;1748954;80;21073;-74
2021/04/25 04:19:40;;;;;;;12.00;7.75;;;;;;;0.53;64.32;100697.17;1733393;82;22513;-75
2021/04/25 04:22:08;;;;;;;12.35;6.83;;;;;;;0.63;64.27;100696.88;1744023;81;21186;-75
2021/04/25 04:24:35;;;;;;;10.75;6.70;;;;;;;0.73;64.29;100691.77;1768117;81;21089;-74
2021/04/25 04:27:03;;;;;;;10.20;6.42;;;;;;;0.84;64.29;100690.94;1750625;79;21187;-75
2021/04/25 04:29:30;;;;;;;11.22;6.30;;;;;;;0.96;64.29;100691.81;1737360;82;21136;-74
2021/04/25 04:31:59;;;;;;;11.45;7.20;;;;;;;1.06;64.14;100687.14;1739036;82;22070;-74
2021/04/25 04:34:27;;;;;;;9.73;5.97;;;;;;;1.15;63.95;100690.72;1739799;81;21156;-75
2021/04/25 04:36:55;;;;;;;9.58;5.17;;;;;;;1.23;63.97;100687.39;1739565;81;21068;-75
2021/04/25 04:39:22;;;;;;;10.75;5.70;;;;;;;1.32;64.05;100686.22;1739122;81;21096;-74
2021/04/25 04:41:50;;;;;;;9.70;6.10;;;;;;;1.42;64.04;100683.67;1744851;79;21331;-75
2021/04/25 04:44:18;;;;;;;10.18;5.80;;;;;;;1.54;64.07;100677.16;1801179;79;22614;-74
2021/04/25 04:46:48;;;;;;;9.98;6.03;;;;;;;1.70;64.01;100676.53;1787554;79;21165;-75
2021/04/25 04:49:17;;;;;;;7.90;4.90;;;;;;;1.90;63.87;100680.13;1778509;79;21142;-75
2021/04/25 04:51:45;;;;;;;7.92;4.60;;;;;;;2.12;63.55;100676.22;1774950;79;21047;-74
2021/04/25 04:54:12;;;;;;;9.38;4.83;;;;;;;2.37;63.17;100676.09;1779880;79;21094;-74
2021/04/25 04:56:40;;;;;;;10.03;5.33;;;;;;;2.64;62.74;100678.88;1787791;79;22566;-74
2021/04/25 04:59:07;;;;;;;7.55;4.58;;;;;;;2.84;62.11;100672.81;1795160;79;21145;-74
2021/04/25 05:01:35;;;;;;;8.68;4.75;;;;;;;3.02;61.61;100675.09;1787528;79;21038;-74
2021/04/25 05:04:03;;;;;;;7.70;4.17;;;;;;;3.17;61.36;100674.41;1803029;79;21126;-75
2021/04/25 05:06:30;;;;;;;7.17;4.28;;;;;;;3.31;60.24;100669.89;1792172;79;21055;-74
2021/04/25 05:08:58;;;;;;;7.67;4.75;;;;;;;3.43;59.91;100671.95;1787061;78;22003;-75
2021/04/25 05:11:25;;;;;;;8.98;4.80;;;;;;;3.54;59.51;100663.16;1802640;77;21110;-75
2021/04/25 05:13:53;;;;;;;11.00;6.33;;;;;;;3.66;59.23;100668.28;1792718;79;21066;-74
2021/04/25 05:16:21;;;;;;;9.78;5.05;;;;;;;3.76;58.96;100672.16;1732860;82;21154;-74
2021/04/25 05:18:49;;;;;;;8.53;4.67;;;;;;;3.86;58.66;100672.14;1724414;82;21158;-74
2021/04/25 05:21:16;;;;;;;8.58;4.60;;;;;;;3.95;58.24;100667.76;1749739;81;22352;-74
2021/04/25 05:23:44;;;;;;;7.90;4.70;;;;;;;4.01;58.17;100676.63;1769506;80;21094;-74
2021/04/25 05:26:12;;;;;;;7.90;4.50;;;;;;;4.10;57.85;100669.28;1769587;80;21145;-74
2021/04/25 05:28:39;;;;;;;8.48;4.65;;;;;;;4.18;57.50;100664.53;1759613;81;21744;-75
2021/04/25 05:31:07;;;;;;;7.95;4.40;;;;;;;4.30;57.30;100664.77;1746573;81;21171;-74
2021/04/25 05:33:34;;;;;;;8.93;4.95;;;;;;;4.41;57.09;100662.94;1751029;81;21906;-75
2021/04/25 05:36:02;;;;;;;8.78;4.33;;;;;;;4.49;57.10;100659.48;1745793;81;21520;-75
2021/04/25 05:38:30;;;;;;;6.95;4.12;;;;;;;4.58;56.54;100647.25;1741487;81;21423;-75
2021/04/25 05:40:57;;;;;;;7.92;4.20;;;;;;;4.66;55.34;100639.49;1757095;80;21226;-80
2021/04/25 05:43:24;;;;;;;6.45;4.03;;;;;;;4.73;55.27;100637.80;1754748;79;21234;-79
2021/04/25 05:45:52;;;;;;;5.42;3.98;;;;;;;4.83;54.67;100634.25;1764465;80;22513;-80
2021/04/25 05:48:19;;;;;;;5.50;3.37;;;;;;;4.96;54.59;100628.75;1741384;81;21174;-80
2021/04/25 05:50:47;;;;;;;9.68;3.90;;;;;;;5.11;54.46;100625.31;1743223;79;21202;-80
2021/04/25 05:53:14;;;;;;;6.75;3.80;;;;;;;5.30;54.06;100619.94;1733860;81;21326;-80
2021/04/25 05:55:43;;;;;;;6.83;3.50;;;;;;;5.56;52.08;100630.80;1754831;81;21145;-79
2021/04/25 05:58:10;;;;;;;5.90;3.33;;;;;;;5.82;51.36;100632.00;1755545;79;22069;-80
2021/04/25 06:00:39;;;;;;;9.20;4.10;;;;;;;6.06;50.48;100630.64;1748928;80;21203;-80
2021/04/25 06:03:08;;;;;;;6.78;3.80;;;;;;;6.25;50.88;100632.59;1762212;81;21168;-81
2021/04/25 06:05:38;;;;;;;6.42;4.08;;;;;;;6.37;50.17;100628.88;1766737;81;21732;-80
2021/04/25 06:08:05;;;;;;;12.58;4.08;;;;;;;6.41;49.81;100632.56;1785891;79;21037;-80
2021/04/25 06:10:33;;;;;;;8.10;3.95;;;;;;;6.42;49.41;100630.31;1770815;80;22460;-80
2021/04/25 06:13:00;;;;;;;7.70;3.27;;;;;;;6.43;48.94;100625.91;1771033;78;21128;-79
2021/04/25 06:15:29;;;;;;;5.70;3.12;;;;;;;6.43;48.22;100627.22;1750281;81;21144;-81
2021/04/25 06:18:00;;;;;;;6.20;3.42;;;;;;;6.43;48.09;100633.78;1765577;78;21206;-81
2021/04/25 06:20:26;;;;;;;6.17;3.60;;;;;;;6.43;47.76;100629.38;1788525;79;21092;-80
2021/04/25 06:22:54;;;;;;;6.37;3.70;;;;;;;6.43;47.53;100619.35;1753071;80;22504;-81
2021/04/25 06:25:21;;;;;;;11.57;4.35;;;;;;;6.50;47.64;100623.31;1733536;81;21024;-80
2021/04/25 06:27:49;;;;;;;6.47;3.45;;;;;;;6.64;47.80;100626.43;1778427;80;21164;-78
2021/04/25 06:30:18;;;;;;;6.45;3.55;;;;;;;6.83;47.72;100620.46;1729156;81;22100;-80
2021/04/25 06:32:47;;;;;;;6.65;3.50;;;;;;;6.99;47.18;100624.34;1736750;81;21171;-75
2021/04/25 06:35:15;;;;;;;5.97;3.55;;;;;;;7.08;45.81;100618.05;1769120;80;22574;-75
2021/04/25 06:37:46;;;;;;;5.50;3.22;;;;;;;7.13;46.25;100615.13;1778671;80;21159;-77
2021/04/25 06:40:14;;;;;;;6.30;2.92;;;;;;;7.22;46.49;100607.16;1785634;80;21149;-76
2021/04/25 06:42:42;;;;;;;4.78;2.70;;;;;;;7.33;45.57;100600.30;1784463;78;22323;-77
2021/04/25 06:45:13;;;;;;;4.70;2.95;;;;;;;7.48;45.60;100612.96;1787541;80;21494;-77
2021/04/25 06:47:41;;;;;;;6.08;3.45;;;;;;;7.63;45.02;100598.86;1770613;80;22624;-78
2021/04/25 06:50:11;;;;;;;4.47;2.42;;;;;;;7.82;44.79;100601.16;1729358;80;21601;-76
2021/04/25 06:52:40;;;;;;;5.75;3.10;;;;;;;7.98;43.66;100603.16;1757185;81;21188;-74
2021/04/25 06:55:10;;;;;;;5.05;2.83;;;;;;;8.08;43.21;100607.81;1770831;78;21222;-76
2021/04/25 06:57:37;;;;;;;5.35;3.08;;;;;;;8.15;42.97;100606.48;1754634;81;21199;-76
2021/04/25 07:00:06;;;;;;;4.55;2.90;;;;;;;8.21;43.08;100605.62;1768260;80;22494;-76
2021/04/25 07:02:34;;;;;;;5.40;3.02;;;;;;;8.29;42.87;100605.09;1752069;81;21126;-77
2021/04/25 07:05:04;;;;;;;5.40;2.80;;;;;;;8.41;42.98;100604.80;1774157;80;21467;-78
2021/04/25 07:07:32;;;;;;;3.65;2.52;;;;;;;8.48;42.88;100597.69;1751757;80;21216;-77
2021/04/25 07:10:00;;;;;;;4.97;3.05;;;;;;;8.58;41.78;100604.02;1715560;80;21185;-78
2021/04/25 07:12:28;;;;;;;5.10;2.22;;;;;;;8.68;40.94;100592.39;1758013;79;22082;-77
2021/04/25 07:14:57;;;;;;;5.28;2.60;;;;;;;8.78;41.57;100593.92;1763881;80;21158;-77
2021/04/25 07:17:25;;;;;;;4.53;2.55;;;;;;;8.93;41.90;100594.67;1723583;81;21158;-76
2021/04/25 07:19:53;;;;;;;8.78;3.20;;;;;;;9.09;40.89;100581.66;1770778;80;21180;-77
2021/04/25 07:22:20;;;;;;;5.60;2.50;;;;;;;9.17;41.07;100587.23;1755867;80;21125;-77
2021/04/25 07:24:49;;;;;;;4.03;2.55;;;;;;;9.26;40.10;100591.46;1694053;83;22960;-74
2021/04/25 07:27:18;;;;;;;5.35;3.00;;;;;;;9.26;40.10;100585.72;1704027;84;21635;-74
2021/04/25 07:29:46;;;;;;;4.20;2.83;;;;;;;9.28;40.30;100581.20;1704231;82;21148;-74
2021/04/25 07:32:15;;;;;;;7.42;3.10;;;;;;;9.31;39.94;100589.36;1725180;81;21714;-76
2021/04/25 07:34:46;;;;;;;5.40;3.20;;;;;;;9.32;39.69;100581.34;1724478;82;21204;-75
2021/04/25 07:37:14;;;;;;;7.08;2.90;;;;;;;9.41;39.68;100590.39;1713561;82;22075;-76
2021/04/25 07:39:42;;;;;;;5.03;3.33;;;;;;;9.55;39.65;100575.73;1722645;82;21952;-76
2021/04/25 07:42:11;;;;;;;5.03;3.15;;;;;;;9.68;39.54;100584.47;1749534;81;21599;-76
2021/04/25 07:44:41;;;;;;;4.95;3.00;;;;;;;9.84;38.59;100570.14;1713105;81;21177;-76
2021/04/25 07:47:10;;;;;;;8.20;3.30;;;;;;;9.96;39.65;100557.39;1714930;81;21216;-76
2021/04/25 07:49:38;;;;;;;7.17;3.70;;;;;;;10.16;38.84;100560.71;1713874;82;22179;-77
2021/04/25 07:52:06;;;;;;;4.65;2.80;;;;;;;10.31;38.10;100563.53;1713939;82;21197;-74
2021/04/25 07:54:34;;;;;;;5.33;2.90;;;;;;;10.28;37.38;100543.98;1711113;82;21213;-76
2021/04/25 07:57:01;;;;;;;4.80;3.27;;;;;;;10.24;37.69;100562.34;1708109;82;22099;-78
2021/04/25 07:59:29;;;;;;;6.30;3.00;;;;;;;10.22;37.84;100556.78;1715035;81;21253;-78
2021/04/25 08:01:56;;;;;;;7.70;3.00;;;;;;;10.22;37.95;100560.27;1716703;81;22529;-77
2021/04/25 08:04:24;;;;;;;6.55;3.25;;;;;;;10.16;37.62;100565.98;1703302;82;21150;-76
2021/04/25 08:06:51;;;;;;;5.30;3.02;;;;;;;10.07;38.24;100554.80;1727373;81;21256;-76
2021/04/25 08:09:19;;;;;;;5.25;2.85;;;;;;;10.04;37.83;100551.08;1772723;79;21189;-74
2021/04/25 08:11:47;;;;;;;5.67;2.95;;;;;;;10.03;37.53;100559.92;1789604;78;21137;-73
2021/04/25 08:14:16;;;;;;;4.55;2.70;;;;;;;10.10;38.12;100550.59;1774535;79;21608;-74
2021/04/25 08:16:44;;;;;;;6.37;3.45;;;;;;;10.19;37.90;100548.59;1752723;81;21180;-73
2021/04/25 08:19:11;;;;;;;6.28;2.90;;;;;;;10.27;37.07;100551.53;1747341;81;21202;-74
2021/04/25 08:21:39;;;;;;;6.45;3.02;;;;;;;10.35;36.89;100546.16;1742092;80;21191;-73
2021/04/25 08:24:07;;;;;;;5.65;3.10;;;;;;;10.40;36.93;100534.28;1734988;81;21176;-74
2021/04/25 08:26:36;;;;;;;4.33;2.70;;;;;;;10.42;37.03;100529.75;1755185;79;21192;-76
2021/04/25 08:29:04;;;;;;;6.12;2.83;;;;;;;10.47;36.79;100542.59;1755682;79;21158;-78
2021/04/25 08:31:33;;;;;;;5.90;3.85;;;;;;;10.47;36.20;100538.63;1730182;80;21480;-74
2021/04/25 08:34:00;;;;;;;5.47;3.37;;;;;;;10.48;35.82;100537.18;1744110;79;21642;-74
2021/04/25 08:36:28;;;;;;;6.90;2.98;;;;;;;10.50;36.02;100537.89;1763277;81;21165;-77
2021/04/25 08:38:55;;;;;;;5.25;2.92;;;;;;;10.47;35.75;100529.38;1759711;81;22402;-75
2021/04/25 08:41:23;;;;;;;5.17;2.90;;;;;;;10.44;36.19;100525.66;1729580;82;21176;-75
2021/04/25 08:43:50;;;;;;;5.47;2.50;;;;;;;10.45;36.46;100527.34;1764609;81;21210;-73
2021/04/25 08:46:20;;;;;;;4.95;3.00;;;;;;;10.47;36.76;100526.26;1767411;81;21164;-74
2021/04/25 08:48:48;;;;;;;5.78;3.17;;;;;;;10.50;36.08;100533.09;1765250;81;21211;-74
2021/04/25 08:51:18;;;;;;;7.58;3.17;;;;;;;10.48;35.53;100543.78;1762226;80;22114;-74
2021/04/25 08:53:47;;;;;;;5.30;3.10;;;;;;;10.53;35.68;100519.67;1753002;79;21226;-74
2021/04/25 08:56:16;;;;;;;6.20;3.58;;;;;;;10.57;36.01;100520.62;1746985;81;21045;-74
2021/04/25 08:58:44;;;;;;;6.12;3.45;;;;;;;10.58;36.31;100517.51;1743107;79;21148;-74
2021/04/25 09:01:12;;;;;;;5.35;2.98;;;;;;;10.63;36.45;100535.66;1760324;79;21177;-75
2021/04/25 09:03:39;;;;;;;5.03;3.08;;;;;;;10.62;36.47;100524.25;1761288;80;22019;-74
2021/04/25 09:06:10;;;;;;;4.42;3.15;;;;;;;10.61;35.97;100517.27;1738701;81;21480;-75
2021/04/25 09:08:57;;;;;;;4.60;2.80;;;;;;;10.71;36.42;100521.35;1746600;81;21129;-76
2021/04/25 09:11:30;;;;;;;6.10;3.27;;;;;;;10.89;35.72;100511.99;1720534;83;21152;-74
2021/04/25 09:14:18;;;;;;;5.17;3.08;;;;;;;11.08;35.28;100506.94;1751293;80;21200;-73
2021/04/25 09:16:57;;;;;;;4.60;2.60;;;;;;;11.20;35.54;100511.75;1744097;82;22084;-73
2021/04/25 09:19:47;;;;;;;5.70;2.95;;;;;;;11.36;33.61;100497.64;1766003;80;21181;-74
2021/04/25 09:22:15;;;;;;;6.83;3.10;;;;;;;11.38;33.99;100492.22;1801662;77;21571;-75
2021/04/25 09:24:43;;;;;;;4.83;3.00;;;;;;;11.31;34.11;100486.61;1799499;79;21105;-75
2021/04/25 09:27:10;;;;;;;6.22;3.00;;;;;;;11.19;34.32;100483.61;1797457;79;21169;-75
2021/04/25 09:29:58;;;;;;;4.67;2.87;;;;;;;11.06;35.08;100501.42;1785485;79;22778;-74
2021/04/25 09:32:29;;;;;;;4.83;2.70;;;;;;;10.95;34.98;100499.63;1783969;79;21204;-75
2021/04/25 09:35:18;;;;;;;5.25;2.70;;;;;;;10.88;35.18;100495.78;1780852;79;21129;-76
2021/04/25 09:37:48;;;;;;;5.80;3.02;;;;;;;10.92;35.70;100485.83;1804912;79;21137;-75
2021/04/25 09:40:22;;;;;;;6.70;2.92;;;;;;;11.05;35.16;100479.44;1812844;79;21156;-76
2021/04/25 09:43:06;;;;;;;8.18;3.17;;;;;;;11.19;34.91;100478.32;1811371;79;21858;-75
2021/04/25 09:45:46;;;;;;;6.97;3.58;;;;;;;11.28;34.89;100485.52;1806085;79;21771;-74
2021/04/25 09:48:29;;;;;;;3.67;2.33;;;;;;;11.27;34.39;100486.97;1783608;79;21160;-75
2021/04/25 09:51:20;;;;;;;5.80;3.00;;;;;;;11.26;34.71;100478.67;1781022;80;21153;-75
2021/04/25 09:53:56;;;;;;;6.70;3.05;;;;;;;11.33;34.86;100487.80;1809798;79;21200;-77
2021/04/25 09:56:35;;;;;;;5.12;3.10;;;;;;;11.41;34.84;100480.09;1811853;79;21820;-74
2021/04/25 09:59:05;;;;;;;5.58;3.22;;;;;;;11.50;33.74;100467.45;1810355;79;21492;-76
2021/04/25 10:01:35;;;;;;;5.53;2.90;;;;;;;11.60;34.21;100467.05;1812783;79;21192;-75
2021/04/25 10:04:27;;;;;;;7.10;2.92;;;;;;;11.75;34.30;100455.18;1803655;79;22316;-75
2021/04/25 10:06:56;;;;;;;9.15;3.15;;;;;;;11.87;33.98;100457.34;1798894;79;21465;-72
2021/04/25 10:09:24;;;;;;;4.17;2.50;;;;;;;11.97;33.92;100454.77;1773262;79;21712;-73
2021/04/25 10:11:54;;;;;;;4.62;3.17;;;;;;;11.94;32.28;100455.84;1772385;79;21502;-74
2021/04/25 10:14:22;;;;;;;6.12;2.87;;;;;;;11.80;32.20;100439.45;1775808;79;21192;-74
2021/04/25 10:16:50;;;;;;;4.30;3.00;;;;;;;11.68;32.98;100452.71;1795300;79;21182;-78
2021/04/25 10:19:18;;;;;;;7.20;3.70;;;;;;;11.64;33.39;100458.37;1787907;79;21173;-74
2021/04/25 10:21:45;;;;;;;6.03;3.50;;;;;;;11.60;33.23;100452.50;1775381;79;22510;-75
2021/04/25 10:27:06;;;;;;;5.08;3.15;;;;;;;11.60;33.46;100457.79;1886331;74;23411;-74
2021/04/25 10:29:42;;;;;;;6.03;3.45;;;;;;;11.55;33.23;100463.92;1840905;76;21117;-76
2021/04/25 10:32:10;;;;;;;4.47;3.40;;;;;;;11.54;33.49;100456.12;1804738;77;22456;-75
2021/04/25 10:34:38;;;;;;;6.53;3.65;;;;;;;11.58;34.16;100458.86;1841258;77;21122;-75
2021/04/25 10:37:08;;;;;;;8.38;5.87;;;;;;;11.79;34.00;100443.04;1837386;77;21430;-73
2021/04/25 10:39:52;;;;;;;7.22;3.27;;;;;;;12.13;34.73;100439.73;1840303;77;21124;-76
2021/04/25 10:42:29;;;;;;;4.20;2.83;;;;;;;12.57;33.48;100431.48;1819200;77;22148;-76
2021/04/25 10:45:03;;;;;;;4.30;2.40;;;;;;;12.98;33.19;100429.65;1813481;79;22508;-76
2021/04/25 10:47:41;;;;;;;5.53;2.40;;;;;;;13.42;31.40;100452.73;1814421;79;21182;-75
2021/04/25 10:50:18;;;;;;;6.33;2.98;;;;;;;13.59;31.57;100438.76;1753459;79;21200;-77
2021/04/25 10:52:50;;;;;;;5.08;2.95;;;;;;;13.67;30.65;100441.55;1799398;79;21179;-75
2021/04/25 10:55:25;;;;;;;6.60;2.90;;;;;;;13.67;31.74;100434.92;1790930;79;21165;-80
2021/04/25 10:58:01;;;;;;;3.92;2.80;;;;;;;13.88;31.11;100430.78;1804594;77;21922;-74
2021/04/25 11:00:38;;;;;;;5.12;2.98;;;;;;;13.99;30.88;100428.45;1820364;77;21173;-75
2021/04/25 11:03:25;;;;;;;7.12;3.10;;;;;;;13.95;30.31;100448.32;1760122;80;21138;-74
2021/04/25 11:05:54;;;;;;;4.28;2.87;;;;;;;13.75;30.77;100427.59;1814079;78;21193;-75
2021/04/25 11:08:39;;;;;;;5.25;3.20;;;;;;;13.63;30.06;100420.76;1805027;77;21600;-74
2021/04/25 11:11:11;;;;;;;8.80;5.28;;;;;;;13.34;30.27;100422.91;1822213;77;22042;-75
2021/04/25 11:13:45;;;;;;;8.98;5.12;;;;;;;13.11;30.90;100429.39;1789138;79;21089;-73
2021/04/25 11:16:26;;;;;;;7.10;3.65;;;;;;;13.09;31.21;100422.90;1813822;79;21214;-76
2021/04/25 11:19:12;;;;;;;5.83;2.70;;;;;;;13.13;30.84;100409.73;1807189;79;21131;-77
2021/04/25 11:21:50;;;;;;;4.20;2.92;;;;;;;13.21;31.34;100400.27;1813941;79;21751;-76
2021/04/25 11:24:26;;;;;;;5.40;2.80;;;;;;;13.49;30.70;100402.59;1811979;79;21185;-74
2021/04/25 11:26:57;;;;;;;4.17;2.20;;;;;;;13.79;29.88;100393.63;1814490;79;21206;-75
2021/04/25 11:29:42;;;;;;;3.55;2.50;;;;;;;14.02;29.87;100389.19;1813373;79;21180;-76
2021/04/25 11:32:25;;;;;;;3.70;2.27;;;;;;;14.22;29.61;100391.30;1805825;79;21195;-76
2021/04/25 11:35:02;;;;;;;3.50;2.50;;;;;;;14.45;28.54;100384.32;1806923;78;27787;-76
2021/04/25 11:37:30;;;;;;;4.53;2.60;;;;;;;14.39;28.62;100393.70;1786079;79;23113;-77